Ash Township, Michigan
Current Conditions -  °F | °C
As of 9:36 PM on Wednesday 22 Oct 2014 (Local Time) from KTTF Reporting Station
Scattered Clouds Scattered Clouds  
Wind Chill: 42°   Ceiling: Unl
Heat Index: 45°   Visibility: 10mi
Dew Point: 39°   Wind: 5mph
Humidity: 81%   Direction: 10°N
Pressure: 30.27"   Gusts: NA
Location:  42.051°N, 83.409°W
Report Text: KTTF 230136Z AUTO 01004KT 10SM SCT036 07/04 A3027 RMK AO2
Loading
Personal Weather Stations






























Interactive Weather Map
Tropical Storm Tracking
New forecast layout! Learn more

10-Day Weather Forecast

Advertisements
Track Severe Weather on mobile